Time;durP1;ratioP1;P1;durP2;ratioP2;P2;SDS_P1;SDS_P2;PMS_P1;PMS_P2;Temp;Humidity;BMP_temperature;BMP_pressure;BME280_temperature;BME280_humidity;BME280_pressure;Samples;Min_cycle;Max_cycle;Signal;HPM_P1;HPM_P2
2022/01/09 15:52:34;;;;;;;55.28;25.75;;;;;;;;;;5485938;23;20498;-94
2022/01/09 15:55:00;;;;;;;51.70;24.70;;;;;;;;;;4956733;29;20062;-96
2022/01/09 15:57:29;;;;;;;56.00;25.80;;;;;;;;;;4957591;29;20032;-91
2022/01/09 15:59:58;;;;;;;70.10;28.80;;;;;;;;;;4957325;28;20027;-95
2022/01/09 16:02:27;;;;;;;64.53;28.25;;;;;;;;;;4962058;29;20027;-92
2022/01/09 16:04:54;;;;;;;55.47;26.15;;;;;;;;;;5175641;23;20048;-92
2022/01/09 16:07:20;;;;;;;64.78;26.20;;;;;;;;;;4925991;29;20029;-91
2022/01/09 16:09:47;;;;;;;65.57;27.33;;;;;;;;;;4920518;29;20039;-90
2022/01/09 16:12:15;;;;;;;78.30;30.90;;;;;;;;;;5429087;23;20079;-94
2022/01/09 16:14:45;;;;;;;94.18;36.35;;;;;;;;;;5134254;23;20466;-94
2022/01/09 16:17:11;;;;;;;93.95;34.72;;;;;;;;;;5830937;23;21008;-95
2022/01/09 16:19:37;;;;;;;86.35;32.42;;;;;;;;;;5335621;23;20040;-69
2022/01/09 16:22:06;;;;;;;70.70;30.88;;;;;;;;;;4937129;29;20448;-72
2022/01/09 16:24:32;;;;;;;76.82;31.20;;;;;;;;;;4936941;29;20031;-73
2022/01/09 16:26:58;;;;;;;62.90;27.98;;;;;;;;;;4919401;29;20103;-73
2022/01/09 16:29:24;;;;;;;60.13;25.42;;;;;;;;;;4919288;29;20035;-71
2022/01/09 16:31:51;;;;;;;55.08;25.77;;;;;;;;;;4919593;29;20023;-75
2022/01/09 16:34:17;;;;;;;59.47;26.52;;;;;;;;;;4937045;29;20501;-74
2022/01/09 16:36:43;;;;;;;53.22;26.27;;;;;;;;;;4937249;29;20031;-72
2022/01/09 16:39:12;;;;;;;58.58;28.77;;;;;;;;;;4919637;29;20075;-72
2022/01/09 16:41:42;;;;;;;63.35;28.42;;;;;;;;;;4919497;29;20039;-72
2022/01/09 16:44:08;;;;;;;66.28;29.30;;;;;;;;;;4919488;29;20031;-73
2022/01/09 16:46:35;;;;;;;76.35;31.73;;;;;;;;;;4936654;29;20063;-71
2022/01/09 16:49:01;;;;;;;82.80;36.53;;;;;;;;;;4919560;29;20028;-73
2022/01/09 16:51:27;;;;;;;60.53;27.60;;;;;;;;;;4919423;29;20079;-73
2022/01/09 16:53:53;;;;;;;61.22;29.90;;;;;;;;;;4919444;29;20035;-73
2022/01/09 16:56:20;;;;;;;75.10;28.88;;;;;;;;;;4919361;29;20090;-73
2022/01/09 16:58:46;;;;;;;84.32;38.28;;;;;;;;;;4936989;29;20405;-73
2022/01/09 17:01:13;;;;;;;96.75;44.67;;;;;;;;;;4919409;29;20421;-74
2022/01/09 17:03:39;;;;;;;84.15;37.42;;;;;;;;;;4926390;29;20473;-69
2022/01/09 17:06:07;;;;;;;76.80;35.38;;;;;;;;;;4942625;29;20040;-72
2022/01/09 17:08:37;;;;;;;67.43;33.03;;;;;;;;;;4936296;29;20102;-68
2022/01/09 17:11:07;;;;;;;72.55;33.00;;;;;;;;;;4918756;29;20095;-74
2022/01/09 17:13:33;;;;;;;61.42;29.23;;;;;;;;;;4918848;29;20134;-71
2022/01/09 17:15:59;;;;;;;63.40;26.70;;;;;;;;;;4936729;29;20064;-73
2022/01/09 17:18:26;;;;;;;51.97;25.05;;;;;;;;;;4936706;29;20035;-74
2022/01/09 17:20:54;;;;;;;59.83;25.88;;;;;;;;;;4927359;29;20413;-71
2022/01/09 17:23:21;;;;;;;49.97;24.13;;;;;;;;;;4934949;29;20034;-73
2022/01/09 17:25:47;;;;;;;57.33;24.25;;;;;;;;;;4935998;29;20028;-73
2022/01/09 17:28:13;;;;;;;52.15;24.35;;;;;;;;;;4936122;29;20043;-72
2022/01/09 17:30:40;;;;;;;55.72;27.05;;;;;;;;;;4936100;29;20024;-74
2022/01/09 17:33:06;;;;;;;59.83;28.83;;;;;;;;;;4934797;29;20032;-74
2022/01/09 17:35:33;;;;;;;72.63;35.58;;;;;;;;;;4934825;29;20035;-73
2022/01/09 17:37:59;;;;;;;81.55;36.10;;;;;;;;;;4934718;29;20039;-72
2022/01/09 17:40:25;;;;;;;62.70;28.17;;;;;;;;;;4935973;29;20039;-70
2022/01/09 17:42:51;;;;;;;63.17;30.05;;;;;;;;;;4935036;29;20035;-73
2022/01/09 17:45:17;;;;;;;56.70;26.70;;;;;;;;;;4934640;29;20031;-69
2022/01/09 17:47:43;;;;;;;54.97;24.45;;;;;;;;;;4934738;29;20027;-72
2022/01/09 17:50:10;;;;;;;49.70;24.33;;;;;;;;;;4935820;29;20024;-71
2022/01/09 17:52:36;;;;;;;57.35;24.13;;;;;;;;;;4936164;29;20090;-71
2022/01/09 17:55:02;;;;;;;44.85;22.05;;;;;;;;;;4934640;29;20034;-71
2022/01/09 17:57:28;;;;;;;50.97;24.08;;;;;;;;;;4935842;29;20485;-72
2022/01/09 17:59:54;;;;;;;48.65;22.27;;;;;;;;;;4936286;29;20043;-71
2022/01/09 18:02:22;;;;;;;46.38;20.52;;;;;;;;;;4935845;29;20038;-72
2022/01/09 18:04:48;;;;;;;51.53;23.67;;;;;;;;;;4935794;29;20028;-71
2022/01/09 18:07:15;;;;;;;54.15;23.58;;;;;;;;;;4934561;29;20119;-71
2022/01/09 18:09:42;;;;;;;54.03;24.92;;;;;;;;;;4934549;29;20067;-72
2022/01/09 18:12:08;;;;;;;56.10;25.63;;;;;;;;;;4935788;29;20027;-72
2022/01/09 18:14:34;;;;;;;56.97;26.08;;;;;;;;;;4936251;29;20056;-70
2022/01/09 18:17:00;;;;;;;61.92;26.58;;;;;;;;;;4935652;29;20031;-73
2022/01/09 18:19:26;;;;;;;57.15;26.05;;;;;;;;;;4936083;29;20028;-69
2022/01/09 18:21:52;;;;;;;51.67;25.50;;;;;;;;;;4936383;29;20052;-69
2022/01/09 18:24:19;;;;;;;59.00;26.35;;;;;;;;;;4938530;29;20019;-70
2022/01/09 18:26:46;;;;;;;59.30;28.17;;;;;;;;;;4939084;29;20036;-73
2022/01/09 18:29:13;;;;;;;59.42;27.83;;;;;;;;;;4939565;29;20075;-71
2022/01/09 18:31:39;;;;;;;59.08;26.90;;;;;;;;;;4939219;29;20036;-71
2022/01/09 18:34:06;;;;;;;54.33;26.13;;;;;;;;;;4939543;29;20056;-70
2022/01/09 18:36:32;;;;;;;60.53;27.75;;;;;;;;;;4938961;29;20035;-71
2022/01/09 18:38:59;;;;;;;68.15;29.02;;;;;;;;;;4921792;29;20425;-73
2022/01/09 18:41:26;;;;;;;66.80;28.83;;;;;;;;;;4939028;29;20035;-73
2022/01/09 18:43:52;;;;;;;64.13;28.70;;;;;;;;;;4921778;29;20032;-72
2022/01/09 18:46:19;;;;;;;61.72;28.23;;;;;;;;;;4938631;29;20437;-74
2022/01/09 18:48:45;;;;;;;65.28;28.00;;;;;;;;;;4925766;29;20023;-75
2022/01/09 18:51:12;;;;;;;61.53;28.77;;;;;;;;;;4936259;29;20039;-72
2022/01/09 18:53:38;;;;;;;62.97;29.42;;;;;;;;;;4921565;29;20027;-70
2022/01/09 18:56:04;;;;;;;62.53;27.92;;;;;;;;;;4921519;29;20038;-74
2022/01/09 18:58:30;;;;;;;57.13;23.92;;;;;;;;;;4921422;29;20031;-73
2022/01/09 19:00:57;;;;;;;62.45;28.10;;;;;;;;;;4921342;29;20039;-73
2022/01/09 19:03:23;;;;;;;57.92;27.77;;;;;;;;;;4921428;29;20032;-75
2022/01/09 19:05:49;;;;;;;63.50;27.73;;;;;;;;;;4921341;29;20504;-74
2022/01/09 19:08:22;;;;;;;62.47;29.15;;;;;;;;;;4921323;29;20028;-74
2022/01/09 19:10:48;;;;;;;63.67;26.13;;;;;;;;;;4921289;29;20028;-74
2022/01/09 19:13:15;;;;;;;62.45;28.25;;;;;;;;;;4921097;29;20036;-73
2022/01/09 19:15:41;;;;;;;57.50;26.08;;;;;;;;;;4921177;29;20164;-74
2022/01/09 19:18:07;;;;;;;57.25;26.88;;;;;;;;;;4921129;29;20592;-73
2022/01/09 19:20:34;;;;;;;62.35;28.40;;;;;;;;;;4926927;29;20055;-72
2022/01/09 19:23:03;;;;;;;57.92;27.63;;;;;;;;;;4936948;29;20042;-74
2022/01/09 19:25:33;;;;;;;64.35;28.00;;;;;;;;;;4936907;29;20036;-72
2022/01/09 19:28:00;;;;;;;63.42;28.02;;;;;;;;;;4937091;29;20043;-69
2022/01/09 19:30:26;;;;;;;59.55;27.95;;;;;;;;;;4938012;29;20031;-74
2022/01/09 19:32:52;;;;;;;62.70;29.13;;;;;;;;;;4936692;29;20028;-74
2022/01/09 19:35:18;;;;;;;66.68;30.42;;;;;;;;;;4937124;29;20032;-74
2022/01/09 19:37:44;;;;;;;67.05;29.50;;;;;;;;;;4936640;29;20051;-74
2022/01/09 19:40:11;;;;;;;67.20;31.80;;;;;;;;;;4936515;29;20035;-73
2022/01/09 19:42:37;;;;;;;65.45;30.33;;;;;;;;;;4936548;29;20079;-74
2022/01/09 19:45:04;;;;;;;61.58;27.90;;;;;;;;;;4936434;29;20036;-72
2022/01/09 19:47:30;;;;;;;58.72;28.65;;;;;;;;;;4936430;29;20032;-74
2022/01/09 19:49:56;;;;;;;68.47;29.40;;;;;;;;;;4936370;29;20122;-72
2022/01/09 19:52:24;;;;;;;69.00;30.77;;;;;;;;;;4937604;29;20031;-69
2022/01/09 19:54:50;;;;;;;67.55;30.20;;;;;;;;;;4936276;29;20028;-73
2022/01/09 19:57:19;;;;;;;60.35;29.20;;;;;;;;;;4936159;29;20119;-74
2022/01/09 19:59:45;;;;;;;63.95;28.48;;;;;;;;;;4937425;29;20023;-72
2022/01/09 20:02:12;;;;;;;61.58;29.73;;;;;;;;;;4937318;29;20036;-73
2022/01/09 20:04:38;;;;;;;70.15;30.73;;;;;;;;;;4937321;29;20034;-73
2022/01/09 20:07:06;;;;;;;70.47;30.08;;;;;;;;;;4937342;29;20504;-71
2022/01/09 20:09:33;;;;;;;61.90;28.08;;;;;;;;;;4937190;29;20058;-70
2022/01/09 20:12:00;;;;;;;61.35;27.95;;;;;;;;;;4937197;29;20024;-70
2022/01/09 20:14:26;;;;;;;63.90;27.55;;;;;;;;;;4937430;29;20036;-74
2022/01/09 20:16:52;;;;;;;56.85;26.08;;;;;;;;;;4935857;29;20501;-75
2022/01/09 20:19:18;;;;;;;67.38;28.70;;;;;;;;;;4935886;29;20473;-74
2022/01/09 20:21:46;;;;;;;71.43;31.50;;;;;;;;;;4935543;29;20520;-74
2022/01/09 20:24:13;;;;;;;69.22;31.25;;;;;;;;;;4935838;29;20477;-75
2022/01/09 20:26:42;;;;;;;70.35;31.80;;;;;;;;;;4935790;29;20540;-73
2022/01/09 20:29:09;;;;;;;64.65;27.30;;;;;;;;;;4936959;29;20023;-69
2022/01/09 20:31:38;;;;;;;60.78;26.27;;;;;;;;;;4937484;29;20032;-74
2022/01/09 20:34:05;;;;;;;57.70;26.73;;;;;;;;;;4946350;29;20040;-73
2022/01/09 20:36:34;;;;;;;72.47;30.80;;;;;;;;;;4936933;29;20035;-74
2022/01/09 20:39:00;;;;;;;73.28;32.45;;;;;;;;;;4937293;29;20149;-72
2022/01/09 20:41:27;;;;;;;71.90;31.30;;;;;;;;;;4935620;29;20086;-70
2022/01/09 20:43:53;;;;;;;68.72;30.88;;;;;;;;;;4936528;29;20027;-71
2022/01/09 20:46:19;;;;;;;66.35;31.92;;;;;;;;;;4951344;28;20032;-71
2022/01/09 20:48:46;;;;;;;71.82;31.98;;;;;;;;;;4951303;29;20032;-71
2022/01/09 20:51:12;;;;;;;73.97;32.42;;;;;;;;;;4936519;29;20533;-74
2022/01/09 20:53:39;;;;;;;77.45;33.75;;;;;;;;;;4937070;29;20027;-70
2022/01/09 20:56:06;;;;;;;66.80;33.03;;;;;;;;;;4951280;29;20059;-73
2022/01/09 20:58:32;;;;;;;79.43;34.55;;;;;;;;;;4951196;29;20054;-70
2022/01/09 21:01:00;;;;;;;72.45;32.20;;;;;;;;;;4951186;29;20040;-71
2022/01/09 21:03:27;;;;;;;74.40;33.53;;;;;;;;;;4936367;29;20028;-72
2022/01/09 21:05:53;;;;;;;74.72;31.48;;;;;;;;;;4951187;29;20036;-74
2022/01/09 21:08:20;;;;;;;63.63;29.80;;;;;;;;;;4950971;29;20019;-73
2022/01/09 21:10:46;;;;;;;86.90;37.35;;;;;;;;;;4951010;29;20036;-73
2022/01/09 21:13:12;;;;;;;78.93;34.60;;;;;;;;;;4951088;29;20483;-73
2022/01/09 21:15:39;;;;;;;82.05;34.58;;;;;;;;;;4950958;29;20082;-72
2022/01/09 21:18:06;;;;;;;85.55;37.78;;;;;;;;;;4936207;29;20047;-72
2022/01/09 21:20:34;;;;;;;85.38;38.17;;;;;;;;;;4950695;29;20134;-74
2022/01/09 21:23:01;;;;;;;78.38;34.92;;;;;;;;;;4936436;29;20528;-73
2022/01/09 21:25:29;;;;;;;76.88;35.20;;;;;;;;;;4950881;29;20367;-73
2022/01/09 21:27:55;;;;;;;79.07;35.38;;;;;;;;;;4950814;29;20421;-71
2022/01/09 21:30:22;;;;;;;84.80;37.70;;;;;;;;;;4936367;29;20389;-73
2022/01/09 21:32:48;;;;;;;82.43;37.38;;;;;;;;;;4950776;29;20545;-76
2022/01/09 21:35:14;;;;;;;78.32;32.50;;;;;;;;;;4950803;29;20047;-74
2022/01/09 21:37:41;;;;;;;75.57;32.58;;;;;;;;;;4950843;29;20087;-76
2022/01/09 21:40:07;;;;;;;73.40;31.73;;;;;;;;;;4936221;29;20082;-74
2022/01/09 21:42:33;;;;;;;72.95;32.53;;;;;;;;;;4936585;29;20171;-75
2022/01/09 21:44:59;;;;;;;78.82;35.60;;;;;;;;;;4950672;29;20115;-72
2022/01/09 21:47:26;;;;;;;75.50;34.72;;;;;;;;;;4951489;29;20058;-76
2022/01/09 21:49:52;;;;;;;76.97;34.15;;;;;;;;;;4935888;29;20028;-74
2022/01/09 21:52:19;;;;;;;69.40;32.25;;;;;;;;;;4951367;29;20024;-74
2022/01/09 21:54:46;;;;;;;75.22;33.60;;;;;;;;;;4952043;29;20166;-74
2022/01/09 21:57:12;;;;;;;76.03;34.00;;;;;;;;;;4936428;29;20035;-71
2022/01/09 21:59:38;;;;;;;81.85;35.55;;;;;;;;;;4939466;29;20028;-75
2022/01/09 22:02:05;;;;;;;77.85;33.75;;;;;;;;;;4939637;29;20066;-76
2022/01/09 22:04:39;;;;;;;74.47;33.58;;;;;;;;;;4939626;29;20032;-74
2022/01/09 22:07:05;;;;;;;68.20;30.65;;;;;;;;;;4940151;29;20034;-75
2022/01/09 22:09:32;;;;;;;71.53;29.67;;;;;;;;;;4954219;29;20394;-75
2022/01/09 22:11:58;;;;;;;74.75;33.42;;;;;;;;;;4954267;29;20027;-74
2022/01/09 22:14:26;;;;;;;81.68;34.17;;;;;;;;;;4954150;29;20031;-76
2022/01/09 22:16:53;;;;;;;73.95;33.65;;;;;;;;;;4952395;29;20519;-72
2022/01/09 22:19:20;;;;;;;77.22;34.33;;;;;;;;;;4941962;29;20035;-76
2022/01/09 22:21:47;;;;;;;79.25;33.67;;;;;;;;;;4953725;29;20138;-71
2022/01/09 22:24:13;;;;;;;80.75;34.58;;;;;;;;;;4939488;29;20425;-73
2022/01/09 22:26:39;;;;;;;76.00;34.40;;;;;;;;;;4953890;29;20084;-74
2022/01/09 22:29:05;;;;;;;66.65;30.63;;;;;;;;;;4953877;29;20027;-74
2022/01/09 22:31:32;;;;;;;73.50;30.25;;;;;;;;;;4939650;29;20380;-74
2022/01/09 22:33:58;;;;;;;79.07;33.55;;;;;;;;;;4953699;29;20027;-75
2022/01/09 22:36:25;;;;;;;78.43;33.80;;;;;;;;;;4937914;29;20122;-71
2022/01/09 22:38:51;;;;;;;82.00;34.17;;;;;;;;;;4939978;29;20111;-74
2022/01/09 22:41:18;;;;;;;74.70;30.55;;;;;;;;;;4953576;29;20043;-74
2022/01/09 22:43:45;;;;;;;75.18;30.15;;;;;;;;;;4953603;29;20050;-74
2022/01/09 22:46:11;;;;;;;77.70;33.88;;;;;;;;;;4953548;29;20035;-74
2022/01/09 22:48:37;;;;;;;77.13;31.25;;;;;;;;;;4938737;29;20062;-73
2022/01/09 22:51:05;;;;;;;90.45;30.40;;;;;;;;;;4953497;29;20035;-73
2022/01/09 22:53:31;;;;;;;80.65;35.60;;;;;;;;;;4953439;29;20034;-76
2022/01/09 22:55:58;;;;;;;94.25;36.30;;;;;;;;;;4938931;29;20031;-73
2022/01/09 22:58:25;;;;;;;96.18;36.88;;;;;;;;;;4938852;29;20094;-74
2022/01/09 23:00:51;;;;;;;79.70;31.10;;;;;;;;;;4954022;29;20040;-75
2022/01/09 23:03:20;;;;;;;87.18;34.83;;;;;;;;;;4953274;29;20075;-75
2022/01/09 23:05:47;;;;;;;74.90;30.58;;;;;;;;;;4953206;29;20028;-74
2022/01/09 23:08:13;;;;;;;84.53;34.72;;;;;;;;;;4953152;29;20408;-74
2022/01/09 23:10:40;;;;;;;76.88;31.92;;;;;;;;;;4951903;28;20539;-74
2022/01/09 23:13:06;;;;;;;83.32;34.65;;;;;;;;;;4953099;29;20118;-71
2022/01/09 23:15:33;;;;;;;79.45;31.50;;;;;;;;;;4953009;29;20362;-73
2022/01/09 23:18:00;;;;;;;83.72;34.92;;;;;;;;;;4938268;29;20099;-76
2022/01/09 23:20:26;;;;;;;79.13;34.65;;;;;;;;;;4937897;29;20405;-76
2022/01/09 23:22:53;;;;;;;78.80;33.45;;;;;;;;;;4938110;29;20032;-74
2022/01/09 23:25:27;;;;;;;80.43;33.78;;;;;;;;;;4938195;29;20027;-73
2022/01/09 23:27:55;;;;;;;75.43;33.60;;;;;;;;;;4937053;29;20027;-73
2022/01/09 23:30:21;;;;;;;70.25;28.30;;;;;;;;;;4936825;29;20131;-75
2022/01/09 23:32:48;;;;;;;68.70;27.25;;;;;;;;;;4937965;29;20019;-75
2022/01/09 23:35:14;;;;;;;61.78;26.08;;;;;;;;;;4938702;29;20469;-74
2022/01/09 23:37:41;;;;;;;72.93;32.13;;;;;;;;;;4936669;29;20043;-76
2022/01/09 23:40:09;;;;;;;76.78;31.83;;;;;;;;;;4937759;29;20533;-74
2022/01/09 23:42:35;;;;;;;78.30;33.25;;;;;;;;;;4936558;29;20024;-74
2022/01/09 23:45:03;;;;;;;78.18;32.53;;;;;;;;;;4937806;29;20028;-73
2022/01/09 23:47:32;;;;;;;76.75;34.08;;;;;;;;;;4936598;29;20393;-76
2022/01/09 23:52:43;;;;;;;79.28;34.72;;;;;;;;;;4938280;29;20593;-71
2022/01/09 23:55:11;;;;;;;84.45;34.80;;;;;;;;;;4937826;29;20062;-76
2022/01/09 23:57:38;;;;;;;85.07;35.40;;;;;;;;;;4949888;29;20051;-76
